sensor_id;sensor_type;location;lat;lon;timestamp;P1;durP1;ratioP1;P2;durP2;ratioP2
8177;SDS011;4130;48.740;9.132;2023-02-22T00:01:14;7.30;;;3.27;;
8177;SDS011;4130;48.740;9.132;2023-02-22T00:03:59;6.20;;;3.90;;
8177;SDS011;4130;48.740;9.132;2023-02-22T00:06:27;5.47;;;3.90;;
8177;SDS011;4130;48.740;9.132;2023-02-22T00:08:56;8.30;;;4.37;;
8177;SDS011;4130;48.740;9.132;2023-02-22T00:11:23;9.00;;;4.00;;
8177;SDS011;4130;48.740;9.132;2023-02-22T00:13:50;5.20;;;3.60;;
8177;SDS011;4130;48.740;9.132;2023-02-22T00:16:21;4.90;;;3.53;;
8177;SDS011;4130;48.740;9.132;2023-02-22T00:18:49;5.83;;;3.60;;
8177;SDS011;4130;48.740;9.132;2023-02-22T00:21:17;6.90;;;3.50;;
8177;SDS011;4130;48.740;9.132;2023-02-22T00:23:45;5.83;;;3.80;;
8177;SDS011;4130;48.740;9.132;2023-02-22T00:26:17;5.57;;;3.47;;
8177;SDS011;4130;48.740;9.132;2023-02-22T00:28:45;6.60;;;3.73;;
8177;SDS011;4130;48.740;9.132;2023-02-22T00:31:14;6.40;;;3.33;;
8177;SDS011;4130;48.740;9.132;2023-02-22T00:33:41;5.67;;;3.10;;
8177;SDS011;4130;48.740;9.132;2023-02-22T00:36:08;6.40;;;2.93;;
8177;SDS011;4130;48.740;9.132;2023-02-22T00:38:36;6.13;;;3.30;;
8177;SDS011;4130;48.740;9.132;2023-02-22T00:41:04;5.00;;;2.90;;
8177;SDS011;4130;48.740;9.132;2023-02-22T00:43:32;6.87;;;3.10;;
8177;SDS011;4130;48.740;9.132;2023-02-22T00:46:00;5.10;;;3.17;;
8177;SDS011;4130;48.740;9.132;2023-02-22T00:48:27;5.80;;;2.80;;
8177;SDS011;4130;48.740;9.132;2023-02-22T00:50:53;3.47;;;2.57;;
8177;SDS011;4130;48.740;9.132;2023-02-22T00:53:21;6.27;;;3.40;;
8177;SDS011;4130;48.740;9.132;2023-02-22T00:55:49;3.97;;;3.03;;
8177;SDS011;4130;48.740;9.132;2023-02-22T00:58:16;6.57;;;3.20;;
8177;SDS011;4130;48.740;9.132;2023-02-22T01:00:45;5.67;;;3.10;;
8177;SDS011;4130;48.740;9.132;2023-02-22T01:03:13;6.17;;;3.27;;
8177;SDS011;4130;48.740;9.132;2023-02-22T01:05:41;5.43;;;2.87;;
8177;SDS011;4130;48.740;9.132;2023-02-22T01:08:08;4.20;;;2.87;;
8177;SDS011;4130;48.740;9.132;2023-02-22T01:10:37;6.40;;;3.37;;
8177;SDS011;4130;48.740;9.132;2023-02-22T01:13:05;4.53;;;2.97;;
8177;SDS011;4130;48.740;9.132;2023-02-22T01:15:36;3.63;;;2.80;;
8177;SDS011;4130;48.740;9.132;2023-02-22T01:18:06;3.20;;;2.90;;
8177;SDS011;4130;48.740;9.132;2023-02-22T01:20:33;4.27;;;2.43;;
8177;SDS011;4130;48.740;9.132;2023-02-22T01:23:01;5.23;;;3.07;;
8177;SDS011;4130;48.740;9.132;2023-02-22T01:25:30;4.37;;;3.07;;
8177;SDS011;4130;48.740;9.132;2023-02-22T01:27:58;3.53;;;3.00;;
8177;SDS011;4130;48.740;9.132;2023-02-22T01:30:26;4.17;;;2.63;;
8177;SDS011;4130;48.740;9.132;2023-02-22T01:32:56;4.70;;;2.80;;
8177;SDS011;4130;48.740;9.132;2023-02-22T01:35:25;3.30;;;3.00;;
8177;SDS011;4130;48.740;9.132;2023-02-22T01:37:53;4.00;;;3.10;;
8177;SDS011;4130;48.740;9.132;2023-02-22T01:40:22;3.77;;;2.80;;
8177;SDS011;4130;48.740;9.132;2023-02-22T01:42:51;3.10;;;2.57;;
8177;SDS011;4130;48.740;9.132;2023-02-22T01:45:34;6.27;;;3.00;;
8177;SDS011;4130;48.740;9.132;2023-02-22T01:48:08;5.63;;;2.43;;
8177;SDS011;4130;48.740;9.132;2023-02-22T01:50:47;4.07;;;2.80;;
8177;SDS011;4130;48.740;9.132;2023-02-22T01:53:18;3.63;;;2.63;;
8177;SDS011;4130;48.740;9.132;2023-02-22T01:55:47;4.90;;;2.87;;
8177;SDS011;4130;48.740;9.132;2023-02-22T01:58:15;4.37;;;3.07;;
8177;SDS011;4130;48.740;9.132;2023-02-22T02:00:45;4.77;;;2.90;;
8177;SDS011;4130;48.740;9.132;2023-02-22T02:03:13;4.03;;;2.60;;
8177;SDS011;4130;48.740;9.132;2023-02-22T02:05:47;3.90;;;2.57;;
8177;SDS011;4130;48.740;9.132;2023-02-22T02:08:20;3.93;;;2.60;;
8177;SDS011;4130;48.740;9.132;2023-02-22T02:10:54;4.10;;;3.20;;
8177;SDS011;4130;48.740;9.132;2023-02-22T02:13:22;3.30;;;2.63;;
8177;SDS011;4130;48.740;9.132;2023-02-22T02:15:49;3.97;;;3.00;;
8177;SDS011;4130;48.740;9.132;2023-02-22T02:18:22;5.60;;;3.37;;
8177;SDS011;4130;48.740;9.132;2023-02-22T02:20:57;4.10;;;2.90;;
8177;SDS011;4130;48.740;9.132;2023-02-22T02:24:00;4.13;;;2.87;;
8177;SDS011;4130;48.740;9.132;2023-02-22T02:26:58;4.50;;;3.47;;
8177;SDS011;4130;48.740;9.132;2023-02-22T02:29:42;4.17;;;2.67;;
8177;SDS011;4130;48.740;9.132;2023-02-22T02:32:36;4.47;;;3.03;;
8177;SDS011;4130;48.740;9.132;2023-02-22T02:35:11;3.40;;;3.03;;
8177;SDS011;4130;48.740;9.132;2023-02-22T02:37:46;6.17;;;3.17;;
8177;SDS011;4130;48.740;9.132;2023-02-22T02:40:20;5.20;;;3.33;;
8177;SDS011;4130;48.740;9.132;2023-02-22T02:42:52;5.10;;;3.33;;
8177;SDS011;4130;48.740;9.132;2023-02-22T02:45:25;3.23;;;2.73;;
8177;SDS011;4130;48.740;9.132;2023-02-22T02:47:59;4.10;;;3.10;;
8177;SDS011;4130;48.740;9.132;2023-02-22T02:50:30;3.60;;;3.03;;
8177;SDS011;4130;48.740;9.132;2023-02-22T02:53:03;4.10;;;3.07;;
8177;SDS011;4130;48.740;9.132;2023-02-22T02:55:32;5.20;;;3.37;;
8177;SDS011;4130;48.740;9.132;2023-02-22T02:58:01;4.80;;;3.20;;
8177;SDS011;4130;48.740;9.132;2023-02-22T03:00:30;5.37;;;3.20;;
8177;SDS011;4130;48.740;9.132;2023-02-22T03:03:11;6.37;;;3.57;;
8177;SDS011;4130;48.740;9.132;2023-02-22T03:05:56;4.07;;;3.07;;
8177;SDS011;4130;48.740;9.132;2023-02-22T03:08:32;6.43;;;3.33;;
8177;SDS011;4130;48.740;9.132;2023-02-22T03:11:06;6.90;;;3.30;;
8177;SDS011;4130;48.740;9.132;2023-02-22T03:13:42;7.03;;;3.30;;
8177;SDS011;4130;48.740;9.132;2023-02-22T03:16:27;6.00;;;3.63;;
8177;SDS011;4130;48.740;9.132;2023-02-22T03:19:02;5.90;;;3.40;;
8177;SDS011;4130;48.740;9.132;2023-02-22T03:21:37;4.60;;;3.30;;
8177;SDS011;4130;48.740;9.132;2023-02-22T03:24:13;5.67;;;3.27;;
8177;SDS011;4130;48.740;9.132;2023-02-22T03:26:45;4.80;;;3.47;;
8177;SDS011;4130;48.740;9.132;2023-02-22T03:29:19;3.90;;;3.30;;
8177;SDS011;4130;48.740;9.132;2023-02-22T03:31:49;7.77;;;3.80;;
8177;SDS011;4130;48.740;9.132;2023-02-22T03:34:21;7.60;;;3.30;;
8177;SDS011;4130;48.740;9.132;2023-02-22T03:36:52;6.20;;;3.43;;
8177;SDS011;4130;48.740;9.132;2023-02-22T03:39:24;6.13;;;3.77;;
8177;SDS011;4130;48.740;9.132;2023-02-22T03:41:55;7.63;;;3.27;;
8177;SDS011;4130;48.740;9.132;2023-02-22T03:44:30;4.33;;;3.30;;
8177;SDS011;4130;48.740;9.132;2023-02-22T03:47:03;4.53;;;3.43;;
8177;SDS011;4130;48.740;9.132;2023-02-22T03:49:36;4.73;;;2.93;;
8177;SDS011;4130;48.740;9.132;2023-02-22T03:52:07;5.13;;;3.57;;
8177;SDS011;4130;48.740;9.132;2023-02-22T03:54:36;5.83;;;3.57;;
8177;SDS011;4130;48.740;9.132;2023-02-22T03:57:05;4.43;;;3.53;;
8177;SDS011;4130;48.740;9.132;2023-02-22T03:59:37;6.90;;;3.37;;
8177;SDS011;4130;48.740;9.132;2023-02-22T04:02:04;5.20;;;3.83;;
8177;SDS011;4130;48.740;9.132;2023-02-22T04:04:31;4.83;;;3.30;;
8177;SDS011;4130;48.740;9.132;2023-02-22T04:06:59;4.73;;;3.33;;
8177;SDS011;4130;48.740;9.132;2023-02-22T04:09:26;5.70;;;3.63;;
8177;SDS011;4130;48.740;9.132;2023-02-22T04:11:53;5.43;;;3.67;;
8177;SDS011;4130;48.740;9.132;2023-02-22T04:14:20;5.73;;;3.53;;
8177;SDS011;4130;48.740;9.132;2023-02-22T04:16:46;4.70;;;3.57;;
8177;SDS011;4130;48.740;9.132;2023-02-22T04:19:13;4.77;;;3.40;;
8177;SDS011;4130;48.740;9.132;2023-02-22T04:21:40;4.83;;;3.50;;
8177;SDS011;4130;48.740;9.132;2023-02-22T04:24:08;4.90;;;3.43;;
8177;SDS011;4130;48.740;9.132;2023-02-22T04:26:35;4.67;;;3.47;;
8177;SDS011;4130;48.740;9.132;2023-02-22T04:29:02;7.10;;;4.00;;
8177;SDS011;4130;48.740;9.132;2023-02-22T04:31:32;5.23;;;3.40;;
8177;SDS011;4130;48.740;9.132;2023-02-22T04:34:03;4.03;;;3.47;;
8177;SDS011;4130;48.740;9.132;2023-02-22T04:36:30;4.20;;;3.57;;
8177;SDS011;4130;48.740;9.132;2023-02-22T04:38:56;8.43;;;4.00;;
8177;SDS011;4130;48.740;9.132;2023-02-22T04:41:25;6.60;;;4.20;;
8177;SDS011;4130;48.740;9.132;2023-02-22T04:43:52;6.77;;;3.80;;
8177;SDS011;4130;48.740;9.132;2023-02-22T04:46:19;6.27;;;4.10;;
8177;SDS011;4130;48.740;9.132;2023-02-22T04:48:45;7.67;;;3.73;;
8177;SDS011;4130;48.740;9.132;2023-02-22T04:51:12;8.70;;;3.97;;
8177;SDS011;4130;48.740;9.132;2023-02-22T04:53:39;5.97;;;4.30;;
8177;SDS011;4130;48.740;9.132;2023-02-22T04:56:06;7.77;;;3.97;;
8177;SDS011;4130;48.740;9.132;2023-02-22T04:58:34;8.50;;;4.30;;
8177;SDS011;4130;48.740;9.132;2023-02-22T05:01:02;5.63;;;3.83;;
8177;SDS011;4130;48.740;9.132;2023-02-22T05:03:29;4.23;;;3.60;;
8177;SDS011;4130;48.740;9.132;2023-02-22T05:05:55;5.17;;;3.87;;
8177;SDS011;4130;48.740;9.132;2023-02-22T05:08:22;6.23;;;3.50;;
8177;SDS011;4130;48.740;9.132;2023-02-22T05:10:49;7.17;;;3.60;;
8177;SDS011;4130;48.740;9.132;2023-02-22T05:13:20;5.50;;;3.80;;
8177;SDS011;4130;48.740;9.132;2023-02-22T05:15:48;4.93;;;3.07;;
8177;SDS011;4130;48.740;9.132;2023-02-22T05:18:15;5.33;;;3.60;;
8177;SDS011;4130;48.740;9.132;2023-02-22T05:20:44;5.50;;;3.83;;
8177;SDS011;4130;48.740;9.132;2023-02-22T05:23:10;3.90;;;3.17;;
8177;SDS011;4130;48.740;9.132;2023-02-22T05:25:37;5.03;;;3.67;;
8177;SDS011;4130;48.740;9.132;2023-02-22T05:28:06;5.23;;;3.83;;
8177;SDS011;4130;48.740;9.132;2023-02-22T05:30:35;4.20;;;3.10;;
8177;SDS011;4130;48.740;9.132;2023-02-22T05:33:05;4.70;;;3.50;;
8177;SDS011;4130;48.740;9.132;2023-02-22T05:35:33;5.90;;;3.70;;
8177;SDS011;4130;48.740;9.132;2023-02-22T05:38:01;4.00;;;3.53;;
8177;SDS011;4130;48.740;9.132;2023-02-22T05:40:28;4.60;;;3.63;;
8177;SDS011;4130;48.740;9.132;2023-02-22T05:42:55;4.17;;;3.13;;
8177;SDS011;4130;48.740;9.132;2023-02-22T05:45:23;5.03;;;3.60;;
8177;SDS011;4130;48.740;9.132;2023-02-22T05:47:51;5.53;;;3.77;;
8177;SDS011;4130;48.740;9.132;2023-02-22T05:50:20;5.43;;;3.60;;
8177;SDS011;4130;48.740;9.132;2023-02-22T05:52:48;5.30;;;3.70;;
8177;SDS011;4130;48.740;9.132;2023-02-22T05:55:16;4.50;;;3.63;;
8177;SDS011;4130;48.740;9.132;2023-02-22T05:57:44;7.17;;;3.40;;
8177;SDS011;4130;48.740;9.132;2023-02-22T06:00:13;5.00;;;3.17;;
8177;SDS011;4130;48.740;9.132;2023-02-22T06:02:42;5.33;;;3.17;;
8177;SDS011;4130;48.740;9.132;2023-02-22T06:05:09;5.80;;;3.40;;
8177;SDS011;4130;48.740;9.132;2023-02-22T06:07:37;5.60;;;3.47;;
8177;SDS011;4130;48.740;9.132;2023-02-22T06:10:04;5.33;;;3.70;;
8177;SDS011;4130;48.740;9.132;2023-02-22T06:12:38;5.00;;;3.40;;
8177;SDS011;4130;48.740;9.132;2023-02-22T06:15:06;6.13;;;3.53;;
8177;SDS011;4130;48.740;9.132;2023-02-22T06:17:33;6.03;;;3.70;;
8177;SDS011;4130;48.740;9.132;2023-02-22T06:20:00;6.20;;;3.60;;
8177;SDS011;4130;48.740;9.132;2023-02-22T06:22:27;6.77;;;3.60;;
8177;SDS011;4130;48.740;9.132;2023-02-22T06:24:55;7.43;;;4.03;;
8177;SDS011;4130;48.740;9.132;2023-02-22T06:27:24;4.50;;;3.30;;
8177;SDS011;4130;48.740;9.132;2023-02-22T06:29:51;6.13;;;3.63;;
8177;SDS011;4130;48.740;9.132;2023-02-22T06:32:18;5.77;;;3.73;;
8177;SDS011;4130;48.740;9.132;2023-02-22T06:34:45;7.43;;;3.40;;
8177;SDS011;4130;48.740;9.132;2023-02-22T06:37:12;6.00;;;3.67;;
8177;SDS011;4130;48.740;9.132;2023-02-22T06:39:39;7.33;;;3.60;;
8177;SDS011;4130;48.740;9.132;2023-02-22T06:42:07;5.70;;;3.87;;
8177;SDS011;4130;48.740;9.132;2023-02-22T06:44:34;5.00;;;3.63;;
8177;SDS011;4130;48.740;9.132;2023-02-22T06:47:01;5.03;;;3.60;;
8177;SDS011;4130;48.740;9.132;2023-02-22T06:49:28;5.57;;;3.97;;
8177;SDS011;4130;48.740;9.132;2023-02-22T06:51:55;5.40;;;3.60;;
8177;SDS011;4130;48.740;9.132;2023-02-22T06:54:22;6.10;;;3.47;;
8177;SDS011;4130;48.740;9.132;2023-02-22T06:56:49;5.20;;;3.67;;
8177;SDS011;4130;48.740;9.132;2023-02-22T06:59:17;4.50;;;3.33;;
8177;SDS011;4130;48.740;9.132;2023-02-22T07:01:44;4.83;;;3.47;;
8177;SDS011;4130;48.740;9.132;2023-02-22T07:04:11;5.23;;;3.83;;
8177;SDS011;4130;48.740;9.132;2023-02-22T07:06:37;4.63;;;3.90;;
8177;SDS011;4130;48.740;9.132;2023-02-22T07:09:04;5.00;;;3.77;;
8177;SDS011;4130;48.740;9.132;2023-02-22T07:11:31;4.40;;;3.80;;
8177;SDS011;4130;48.740;9.132;2023-02-22T07:13:58;5.17;;;3.93;;
8177;SDS011;4130;48.740;9.132;2023-02-22T07:16:26;6.53;;;4.03;;
8177;SDS011;4130;48.740;9.132;2023-02-22T07:18:53;6.00;;;4.23;;
8177;SDS011;4130;48.740;9.132;2023-02-22T07:21:19;6.33;;;3.90;;
8177;SDS011;4130;48.740;9.132;2023-02-22T07:23:50;7.20;;;4.20;;
8177;SDS011;4130;48.740;9.132;2023-02-22T07:26:17;5.70;;;4.17;;
8177;SDS011;4130;48.740;9.132;2023-02-22T07:28:44;7.03;;;4.23;;
8177;SDS011;4130;48.740;9.132;2023-02-22T07:31:11;5.70;;;4.23;;
8177;SDS011;4130;48.740;9.132;2023-02-22T07:33:39;8.27;;;4.57;;
8177;SDS011;4130;48.740;9.132;2023-02-22T07:36:06;7.40;;;4.50;;
8177;SDS011;4130;48.740;9.132;2023-02-22T07:38:34;4.73;;;3.90;;
8177;SDS011;4130;48.740;9.132;2023-02-22T07:41:00;5.90;;;4.20;;
8177;SDS011;4130;48.740;9.132;2023-02-22T07:43:27;6.07;;;4.27;;
8177;SDS011;4130;48.740;9.132;2023-02-22T07:45:56;5.27;;;3.90;;
8177;SDS011;4130;48.740;9.132;2023-02-22T07:48:25;7.40;;;4.03;;
8177;SDS011;4130;48.740;9.132;2023-02-22T07:50:54;5.63;;;4.07;;
8177;SDS011;4130;48.740;9.132;2023-02-22T07:53:22;5.83;;;4.17;;
8177;SDS011;4130;48.740;9.132;2023-02-22T07:55:50;7.83;;;4.10;;
8177;SDS011;4130;48.740;9.132;2023-02-22T07:58:18;4.67;;;4.00;;
8177;SDS011;4130;48.740;9.132;2023-02-22T08:00:46;6.30;;;4.27;;
8177;SDS011;4130;48.740;9.132;2023-02-22T08:03:13;5.83;;;4.17;;
8177;SDS011;4130;48.740;9.132;2023-02-22T08:05:44;8.50;;;4.73;;
8177;SDS011;4130;48.740;9.132;2023-02-22T08:08:13;5.07;;;4.00;;
8177;SDS011;4130;48.740;9.132;2023-02-22T08:10:41;5.23;;;4.33;;
8177;SDS011;4130;48.740;9.132;2023-02-22T08:13:08;5.93;;;4.70;;
8177;SDS011;4130;48.740;9.132;2023-02-22T08:15:36;9.00;;;4.40;;
8177;SDS011;4130;48.740;9.132;2023-02-22T08:18:06;9.30;;;4.60;;
8177;SDS011;4130;48.740;9.132;2023-02-22T08:20:35;10.13;;;5.23;;
8177;SDS011;4130;48.740;9.132;2023-02-22T08:23:02;7.20;;;4.73;;
8177;SDS011;4130;48.740;9.132;2023-02-22T08:25:31;5.53;;;4.37;;
8177;SDS011;4130;48.740;9.132;2023-02-22T08:27:59;6.30;;;4.27;;
8177;SDS011;4130;48.740;9.132;2023-02-22T08:30:29;8.27;;;4.33;;
8177;SDS011;4130;48.740;9.132;2023-02-22T08:32:57;7.03;;;4.40;;
8177;SDS011;4130;48.740;9.132;2023-02-22T08:35:26;7.63;;;5.20;;
8177;SDS011;4130;48.740;9.132;2023-02-22T08:37:55;8.43;;;4.37;;
8177;SDS011;4130;48.740;9.132;2023-02-22T08:40:24;8.13;;;4.70;;
8177;SDS011;4130;48.740;9.132;2023-02-22T08:42:54;7.30;;;4.20;;
8177;SDS011;4130;48.740;9.132;2023-02-22T08:45:20;7.33;;;4.67;;
8177;SDS011;4130;48.740;9.132;2023-02-22T08:47:47;6.83;;;4.83;;
8177;SDS011;4130;48.740;9.132;2023-02-22T08:50:15;7.93;;;4.97;;
8177;SDS011;4130;48.740;9.132;2023-02-22T08:52:44;8.47;;;5.10;;
8177;SDS011;4130;48.740;9.132;2023-02-22T08:55:11;10.50;;;4.90;;
8177;SDS011;4130;48.740;9.132;2023-02-22T08:57:38;6.70;;;4.63;;
8177;SDS011;4130;48.740;9.132;2023-02-22T09:00:07;6.97;;;4.33;;
8177;SDS011;4130;48.740;9.132;2023-02-22T09:02:35;8.67;;;4.60;;
8177;SDS011;4130;48.740;9.132;2023-02-22T09:05:01;7.03;;;4.50;;
8177;SDS011;4130;48.740;9.132;2023-02-22T09:07:29;11.93;;;5.00;;
8177;SDS011;4130;48.740;9.132;2023-02-22T09:09:56;6.53;;;4.13;;
8177;SDS011;4130;48.740;9.132;2023-02-22T09:12:23;7.03;;;4.33;;
8177;SDS011;4130;48.740;9.132;2023-02-22T09:14:50;7.53;;;4.00;;
8177;SDS011;4130;48.740;9.132;2023-02-22T09:17:18;6.70;;;4.47;;
8177;SDS011;4130;48.740;9.132;2023-02-22T09:19:45;6.73;;;4.27;;
8177;SDS011;4130;48.740;9.132;2023-02-22T09:22:12;8.50;;;4.30;;
8177;SDS011;4130;48.740;9.132;2023-02-22T09:24:38;6.37;;;4.47;;
8177;SDS011;4130;48.740;9.132;2023-02-22T09:27:07;14.07;;;4.77;;
8177;SDS011;4130;48.740;9.132;2023-02-22T09:29:34;7.70;;;4.77;;
8177;SDS011;4130;48.740;9.132;2023-02-22T09:32:01;7.83;;;4.50;;
8177;SDS011;4130;48.740;9.132;2023-02-22T09:34:30;8.70;;;4.63;;
8177;SDS011;4130;48.740;9.132;2023-02-22T09:36:59;6.93;;;4.83;;
8177;SDS011;4130;48.740;9.132;2023-02-22T09:39:26;8.47;;;5.00;;
8177;SDS011;4130;48.740;9.132;2023-02-22T09:42:06;6.77;;;4.33;;
8177;SDS011;4130;48.740;9.132;2023-02-22T09:44:39;8.10;;;4.70;;
8177;SDS011;4130;48.740;9.132;2023-02-22T09:47:13;11.33;;;5.00;;
8177;SDS011;4130;48.740;9.132;2023-02-22T09:49:49;6.23;;;4.43;;
8177;SDS011;4130;48.740;9.132;2023-02-22T09:52:24;8.07;;;4.27;;
8177;SDS011;4130;48.740;9.132;2023-02-22T09:54:55;8.50;;;4.33;;
8177;SDS011;4130;48.740;9.132;2023-02-22T09:57:31;8.87;;;4.53;;
8177;SDS011;4130;48.740;9.132;2023-02-22T10:00:01;6.13;;;4.23;;
8177;SDS011;4130;48.740;9.132;2023-02-22T10:02:37;6.27;;;4.27;;
8177;SDS011;4130;48.740;9.132;2023-02-22T10:05:12;6.47;;;4.20;;
8177;SDS011;4130;48.740;9.132;2023-02-22T10:07:45;7.00;;;4.77;;
8177;SDS011;4130;48.740;9.132;2023-02-22T10:10:17;5.17;;;3.80;;
8177;SDS011;4130;48.740;9.132;2023-02-22T10:12:47;8.13;;;3.87;;
8177;SDS011;4130;48.740;9.132;2023-02-22T10:15:26;7.70;;;4.50;;
8177;SDS011;4130;48.740;9.132;2023-02-22T10:18:09;5.77;;;3.93;;
8177;SDS011;4130;48.740;9.132;2023-02-22T10:20:55;13.17;;;4.00;;
8177;SDS011;4130;48.740;9.132;2023-02-22T10:23:27;7.07;;;3.87;;
8177;SDS011;4130;48.740;9.132;2023-02-22T10:26:01;10.23;;;4.10;;
8177;SDS011;4130;48.740;9.132;2023-02-22T10:28:39;5.30;;;3.70;;
8177;SDS011;4130;48.740;9.132;2023-02-22T10:31:08;7.77;;;3.77;;
8177;SDS011;4130;48.740;9.132;2023-02-22T10:33:45;5.43;;;4.00;;
8177;SDS011;4130;48.740;9.132;2023-02-22T10:36:15;6.70;;;3.90;;
8177;SDS011;4130;48.740;9.132;2023-02-22T10:38:47;6.17;;;3.63;;
8177;SDS011;4130;48.740;9.132;2023-02-22T10:41:19;4.88;;;3.40;;
8177;SDS011;4130;48.740;9.132;2023-02-22T10:43:53;6.35;;;3.83;;
8177;SDS011;4130;48.740;9.132;2023-02-22T10:46:20;6.97;;;3.80;;
8177;SDS011;4130;48.740;9.132;2023-02-22T10:48:49;5.38;;;3.80;;
8177;SDS011;4130;48.740;9.132;2023-02-22T10:51:20;4.68;;;3.60;;
8177;SDS011;4130;48.740;9.132;2023-02-22T10:53:52;4.95;;;3.70;;
8177;SDS011;4130;48.740;9.132;2023-02-22T10:56:25;5.68;;;4.15;;
8177;SDS011;4130;48.740;9.132;2023-02-22T10:58:54;5.68;;;4.10;;
8177;SDS011;4130;48.740;9.132;2023-02-22T11:01:27;6.03;;;3.53;;
8177;SDS011;4130;48.740;9.132;2023-02-22T11:04:02;5.50;;;4.00;;
8177;SDS011;4130;48.740;9.132;2023-02-22T11:06:37;7.15;;;4.25;;
8177;SDS011;4130;48.740;9.132;2023-02-22T11:09:09;6.78;;;4.38;;
8177;SDS011;4130;48.740;9.132;2023-02-22T11:11:39;6.70;;;3.78;;
8177;SDS011;4130;48.740;9.132;2023-02-22T11:14:07;8.27;;;3.90;;
8177;SDS011;4130;48.740;9.132;2023-02-22T11:16:36;6.13;;;3.95;;
8177;SDS011;4130;48.740;9.132;2023-02-22T11:19:09;6.30;;;3.75;;
8177;SDS011;4130;48.740;9.132;2023-02-22T11:21:43;6.18;;;4.10;;
8177;SDS011;4130;48.740;9.132;2023-02-22T11:24:11;9.23;;;4.10;;
8177;SDS011;4130;48.740;9.132;2023-02-22T11:26:40;9.50;;;4.22;;
8177;SDS011;4130;48.740;9.132;2023-02-22T11:29:10;8.70;;;4.30;;
8177;SDS011;4130;48.740;9.132;2023-02-22T11:31:40;6.25;;;4.57;;
8177;SDS011;4130;48.740;9.132;2023-02-22T11:34:23;6.53;;;4.18;;
8177;SDS011;4130;48.740;9.132;2023-02-22T11:36:54;8.40;;;4.47;;
8177;SDS011;4130;48.740;9.132;2023-02-22T11:39:21;6.63;;;4.07;;
8177;SDS011;4130;48.740;9.132;2023-02-22T11:41:51;8.90;;;5.47;;
8177;SDS011;4130;48.740;9.132;2023-02-22T11:44:22;6.13;;;4.72;;
8177;SDS011;4130;48.740;9.132;2023-02-22T11:46:50;9.45;;;5.28;;
8177;SDS011;4130;48.740;9.132;2023-02-22T11:49:20;7.10;;;5.05;;
8177;SDS011;4130;48.740;9.132;2023-02-22T11:51:55;6.68;;;4.70;;
8177;SDS011;4130;48.740;9.132;2023-02-22T11:54:46;6.32;;;4.70;;
8177;SDS011;4130;48.740;9.132;2023-02-22T11:57:38;8.57;;;4.50;;
8177;SDS011;4130;48.740;9.132;2023-02-22T12:00:17;7.95;;;4.88;;
8177;SDS011;4130;48.740;9.132;2023-02-22T12:03:00;9.40;;;4.70;;
8177;SDS011;4130;48.740;9.132;2023-02-22T12:05:44;5.60;;;4.60;;
8177;SDS011;4130;48.740;9.132;2023-02-22T12:08:27;6.75;;;4.95;;
8177;SDS011;4130;48.740;9.132;2023-02-22T12:11:06;8.70;;;4.82;;
8177;SDS011;4130;48.740;9.132;2023-02-22T12:13:47;6.57;;;4.75;;
8177;SDS011;4130;48.740;9.132;2023-02-22T12:16:27;7.80;;;4.63;;
8177;SDS011;4130;48.740;9.132;2023-02-22T12:19:07;7.55;;;4.45;;
8177;SDS011;4130;48.740;9.132;2023-02-22T12:21:39;7.65;;;5.00;;
8177;SDS011;4130;48.740;9.132;2023-02-22T12:24:12;7.43;;;5.55;;
8177;SDS011;4130;48.740;9.132;2023-02-22T12:26:43;8.85;;;5.25;;
8177;SDS011;4130;48.740;9.132;2023-02-22T12:29:15;6.97;;;5.35;;
8177;SDS011;4130;48.740;9.132;2023-02-22T12:31:48;7.38;;;5.63;;
8177;SDS011;4130;48.740;9.132;2023-02-22T12:34:19;8.45;;;5.90;;
8177;SDS011;4130;48.740;9.132;2023-02-22T12:36:55;9.07;;;5.22;;
8177;SDS011;4130;48.740;9.132;2023-02-22T12:39:32;7.55;;;5.20;;
8177;SDS011;4130;48.740;9.132;2023-02-22T12:42:10;8.07;;;5.38;;
8177;SDS011;4130;48.740;9.132;2023-02-22T12:44:39;10.68;;;5.80;;
8177;SDS011;4130;48.740;9.132;2023-02-22T12:47:13;9.30;;;5.43;;
8177;SDS011;4130;48.740;9.132;2023-02-22T12:49:44;7.75;;;5.45;;
8177;SDS011;4130;48.740;9.132;2023-02-22T12:52:18;9.40;;;6.10;;
8177;SDS011;4130;48.740;9.132;2023-02-22T12:54:57;10.82;;;5.60;;
8177;SDS011;4130;48.740;9.132;2023-02-22T12:57:31;13.02;;;5.53;;
8177;SDS011;4130;48.740;9.132;2023-02-22T13:00:04;10.10;;;5.82;;
8177;SDS011;4130;48.740;9.132;2023-02-22T13:02:42;6.85;;;4.93;;
8177;SDS011;4130;48.740;9.132;2023-02-22T13:05:12;7.32;;;4.97;;
8177;SDS011;4130;48.740;9.132;2023-02-22T13:07:43;11.63;;;5.63;;
8177;SDS011;4130;48.740;9.132;2023-02-22T13:10:34;7.38;;;4.80;;
8177;SDS011;4130;48.740;9.132;2023-02-22T13:13:12;7.85;;;5.28;;
8177;SDS011;4130;48.740;9.132;2023-02-22T13:15:49;6.55;;;5.10;;
8177;SDS011;4130;48.740;9.132;2023-02-22T13:18:20;7.45;;;5.38;;
8177;SDS011;4130;48.740;9.132;2023-02-22T13:20:57;9.10;;;5.40;;
8177;SDS011;4130;48.740;9.132;2023-02-22T13:23:31;9.25;;;5.78;;
8177;SDS011;4130;48.740;9.132;2023-02-22T13:26:12;7.30;;;4.97;;
8177;SDS011;4130;48.740;9.132;2023-02-22T13:28:44;8.13;;;4.97;;
8177;SDS011;4130;48.740;9.132;2023-02-22T13:31:22;10.48;;;6.20;;
8177;SDS011;4130;48.740;9.132;2023-02-22T13:34:14;9.18;;;5.57;;
8177;SDS011;4130;48.740;9.132;2023-02-22T13:36:57;10.10;;;5.50;;
8177;SDS011;4130;48.740;9.132;2023-02-22T13:39:45;8.15;;;5.60;;
8177;SDS011;4130;48.740;9.132;2023-02-22T13:42:44;7.57;;;4.75;;
8177;SDS011;4130;48.740;9.132;2023-02-22T13:45:33;5.88;;;5.18;;
8177;SDS011;4130;48.740;9.132;2023-02-22T13:48:25;7.38;;;5.43;;
8177;SDS011;4130;48.740;9.132;2023-02-22T13:51:22;7.90;;;5.30;;
8177;SDS011;4130;48.740;9.132;2023-02-22T13:54:13;8.80;;;5.43;;
8177;SDS011;4130;48.740;9.132;2023-02-22T13:56:45;7.40;;;5.05;;
8177;SDS011;4130;48.740;9.132;2023-02-22T13:59:22;6.57;;;5.00;;
8177;SDS011;4130;48.740;9.132;2023-02-22T14:01:51;10.15;;;5.25;;
8177;SDS011;4130;48.740;9.132;2023-02-22T14:04:31;7.82;;;4.53;;
8177;SDS011;4130;48.740;9.132;2023-02-22T14:07:02;6.78;;;4.65;;
8177;SDS011;4130;48.740;9.132;2023-02-22T14:09:50;8.88;;;5.07;;
8177;SDS011;4130;48.740;9.132;2023-02-22T14:15:14;7.97;;;4.85;;
8177;SDS011;4130;48.740;9.132;2023-02-22T14:17:43;6.85;;;4.95;;
8177;SDS011;4130;48.740;9.132;2023-02-22T14:20:21;9.07;;;5.40;;
8177;SDS011;4130;48.740;9.132;2023-02-22T14:22:55;8.60;;;5.15;;
8177;SDS011;4130;48.740;9.132;2023-02-22T14:25:30;7.30;;;5.28;;
8177;SDS011;4130;48.740;9.132;2023-02-22T14:28:03;7.28;;;5.10;;
8177;SDS011;4130;48.740;9.132;2023-02-22T14:30:34;7.50;;;5.57;;
8177;SDS011;4130;48.740;9.132;2023-02-22T14:33:05;8.05;;;5.15;;
8177;SDS011;4130;48.740;9.132;2023-02-22T14:36:12;6.90;;;5.30;;
8177;SDS011;4130;48.740;9.132;2023-02-22T14:38:38;6.63;;;4.78;;
8177;SDS011;4130;48.740;9.132;2023-02-22T14:41:09;13.23;;;6.18;;
8177;SDS011;4130;48.740;9.132;2023-02-22T14:43:36;12.20;;;6.45;;
8177;SDS011;4130;48.740;9.132;2023-02-22T14:46:04;8.90;;;5.45;;
8177;SDS011;4130;48.740;9.132;2023-02-22T14:48:36;9.45;;;5.90;;
8177;SDS011;4130;48.740;9.132;2023-02-22T14:51:11;6.90;;;5.10;;
8177;SDS011;4130;48.740;9.132;2023-02-22T14:53:42;12.05;;;6.22;;
8177;SDS011;4130;48.740;9.132;2023-02-22T14:56:13;11.18;;;6.15;;
8177;SDS011;4130;48.740;9.132;2023-02-22T14:58:45;10.05;;;5.97;;
8177;SDS011;4130;48.740;9.132;2023-02-22T15:01:23;9.75;;;6.13;;
8177;SDS011;4130;48.740;9.132;2023-02-22T15:03:54;8.40;;;5.88;;
8177;SDS011;4130;48.740;9.132;2023-02-22T15:06:24;9.68;;;5.90;;
8177;SDS011;4130;48.740;9.132;2023-02-22T15:09:06;10.17;;;6.37;;
8177;SDS011;4130;48.740;9.132;2023-02-22T15:11:36;7.97;;;5.40;;
8177;SDS011;4130;48.740;9.132;2023-02-22T15:14:11;9.60;;;6.25;;
8177;SDS011;4130;48.740;9.132;2023-02-22T15:16:42;10.15;;;5.97;;
8177;SDS011;4130;48.740;9.132;2023-02-22T15:19:14;10.20;;;5.80;;
8177;SDS011;4130;48.740;9.132;2023-02-22T15:21:50;10.57;;;6.00;;
8177;SDS011;4130;48.740;9.132;2023-02-22T15:24:20;12.15;;;6.30;;
8177;SDS011;4130;48.740;9.132;2023-02-22T15:26:49;9.30;;;6.13;;
8177;SDS011;4130;48.740;9.132;2023-02-22T15:29:18;11.63;;;6.15;;
8177;SDS011;4130;48.740;9.132;2023-02-22T15:31:47;7.47;;;5.80;;
8177;SDS011;4130;48.740;9.132;2023-02-22T15:34:16;9.43;;;6.57;;
8177;SDS011;4130;48.740;9.132;2023-02-22T15:36:48;9.13;;;6.10;;
8177;SDS011;4130;48.740;9.132;2023-02-22T15:39:19;14.60;;;6.87;;
8177;SDS011;4130;48.740;9.132;2023-02-22T15:41:59;8.83;;;6.13;;
8177;SDS011;4130;48.740;9.132;2023-02-22T15:44:27;10.10;;;5.95;;